sensor_id;sensor_type;location;lat;lon;timestamp;pressure;altitude;pressure_sealevel;temperature;humidity
66857;BME280;53766;50.280;19.160;2023-09-08T00:02:25;99288.34;;;20.77;54.25
66857;BME280;53766;50.280;19.160;2023-09-08T00:04:53;99287.50;;;20.77;54.23
66857;BME280;53766;50.280;19.160;2023-09-08T00:07:20;99284.03;;;20.76;54.27
66857;BME280;53766;50.280;19.160;2023-09-08T00:09:48;99275.16;;;20.75;54.25
66857;BME280;53766;50.280;19.160;2023-09-08T00:12:15;99280.53;;;20.75;54.35
66857;BME280;53766;50.280;19.160;2023-09-08T00:14:43;99274.31;;;20.75;54.31
66857;BME280;53766;50.280;19.160;2023-09-08T00:17:10;99278.66;;;20.76;54.33
66857;BME280;53766;50.280;19.160;2023-09-08T00:19:37;99271.63;;;20.75;54.26
66857;BME280;53766;50.280;19.160;2023-09-08T00:22:05;99270.00;;;20.74;54.24
66857;BME280;53766;50.280;19.160;2023-09-08T00:24:35;99265.66;;;20.73;54.19
66857;BME280;53766;50.280;19.160;2023-09-08T00:27:02;99267.31;;;20.74;54.25
66857;BME280;53766;50.280;19.160;2023-09-08T00:29:30;99266.50;;;20.73;54.26
66857;BME280;53766;50.280;19.160;2023-09-08T00:31:57;99265.66;;;20.73;54.37
66857;BME280;53766;50.280;19.160;2023-09-08T00:34:25;99265.66;;;20.73;54.32
66857;BME280;53766;50.280;19.160;2023-09-08T00:36:52;99258.66;;;20.72;54.32
66857;BME280;53766;50.280;19.160;2023-09-08T00:39:19;99264.03;;;20.72;54.39
66857;BME280;53766;50.280;19.160;2023-09-08T00:41:46;99266.69;;;20.72;54.39
66857;BME280;53766;50.280;19.160;2023-09-08T00:44:14;99265.88;;;20.71;54.35
66857;BME280;53766;50.280;19.160;2023-09-08T00:46:41;99266.06;;;20.70;54.36
66857;BME280;53766;50.280;19.160;2023-09-08T00:49:08;99265.25;;;20.69;54.27
66857;BME280;53766;50.280;19.160;2023-09-08T00:51:36;99267.75;;;20.71;54.30
66857;BME280;53766;50.280;19.160;2023-09-08T00:54:06;99259.06;;;20.69;54.29
66857;BME280;53766;50.280;19.160;2023-09-08T00:56:33;99258.22;;;20.68;54.32
66857;BME280;53766;50.280;19.160;2023-09-08T00:59:01;99267.09;;;20.69;54.32
66857;BME280;53766;50.280;19.160;2023-09-08T01:01:29;99265.44;;;20.68;54.39
66857;BME280;53766;50.280;19.160;2023-09-08T01:03:57;99259.28;;;20.67;54.37
66857;BME280;53766;50.280;19.160;2023-09-08T01:06:24;99263.81;;;20.67;54.31
66857;BME280;53766;50.280;19.160;2023-09-08T01:08:52;99268.13;;;20.68;54.37
66857;BME280;53766;50.280;19.160;2023-09-08T01:11:19;99261.94;;;20.67;54.28
66857;BME280;53766;50.280;19.160;2023-09-08T01:13:47;99263.81;;;20.67;54.36
66857;BME280;53766;50.280;19.160;2023-09-08T01:16:15;99259.47;;;20.66;54.27
66857;BME280;53766;50.280;19.160;2023-09-08T01:18:43;99261.13;;;20.67;54.46
66857;BME280;53766;50.280;19.160;2023-09-08T01:26:44;99247.13;;;20.65;54.36
66857;BME280;53766;50.280;19.160;2023-09-08T01:29:11;99261.50;;;20.64;54.39
66857;BME280;53766;50.280;19.160;2023-09-08T01:31:41;99256.16;;;20.64;54.41
66857;BME280;53766;50.280;19.160;2023-09-08T01:34:09;99263.16;;;20.65;54.34
66857;BME280;53766;50.280;19.160;2023-09-08T01:36:36;99254.50;;;20.63;54.36
66857;BME280;53766;50.280;19.160;2023-09-08T01:39:04;99260.69;;;20.63;54.47
66857;BME280;53766;50.280;19.160;2023-09-08T01:41:31;99257.19;;;20.63;54.48
66857;BME280;53766;50.280;19.160;2023-09-08T01:44:00;99259.03;;;20.62;54.40
66857;BME280;53766;50.280;19.160;2023-09-08T01:46:32;99261.91;;;20.61;54.28
66857;BME280;53766;50.280;19.160;2023-09-08T01:48:59;99266.22;;;20.62;54.43
66857;BME280;53766;50.280;19.160;2023-09-08T01:51:27;99263.56;;;20.62;54.40
66857;BME280;53766;50.280;19.160;2023-09-08T01:53:54;99272.63;;;20.61;54.34
66857;BME280;53766;50.280;19.160;2023-09-08T01:56:21;99267.25;;;20.61;54.38
66857;BME280;53766;50.280;19.160;2023-09-08T01:58:50;99258.19;;;20.62;54.38
66857;BME280;53766;50.280;19.160;2023-09-08T02:01:17;99251.22;;;20.61;54.50
66857;BME280;53766;50.280;19.160;2023-09-08T02:03:44;99255.75;;;20.60;54.42
66857;BME280;53766;50.280;19.160;2023-09-08T02:06:11;99260.25;;;20.60;54.43
66857;BME280;53766;50.280;19.160;2023-09-08T02:08:38;99263.97;;;20.59;54.53
66857;BME280;53766;50.280;19.160;2023-09-08T02:11:06;99263.97;;;20.59;54.47
66857;BME280;53766;50.280;19.160;2023-09-08T02:13:33;99269.31;;;20.59;54.45
66857;BME280;53766;50.280;19.160;2023-09-08T02:16:00;99261.28;;;20.59;54.42
66857;BME280;53766;50.280;19.160;2023-09-08T02:18:28;99257.78;;;20.58;54.41
66857;BME280;53766;50.280;19.160;2023-09-08T02:20:55;99270.31;;;20.58;54.45
66857;BME280;53766;50.280;19.160;2023-09-08T02:23:22;99267.66;;;20.58;54.37
66857;BME280;53766;50.280;19.160;2023-09-08T02:25:49;99255.28;;;20.57;54.50
66857;BME280;53766;50.280;19.160;2023-09-08T02:28:17;99267.66;;;20.58;54.47
66857;BME280;53766;50.280;19.160;2023-09-08T02:30:44;99261.47;;;20.57;54.44
66857;BME280;53766;50.280;19.160;2023-09-08T02:33:11;99270.50;;;20.56;54.37
66857;BME280;53766;50.280;19.160;2023-09-08T02:35:38;99258.78;;;20.57;54.53
66857;BME280;53766;50.280;19.160;2023-09-08T02:38:06;99267.84;;;20.56;54.53
66857;BME280;53766;50.280;19.160;2023-09-08T02:40:34;99264.31;;;20.55;54.53
66857;BME280;53766;50.280;19.160;2023-09-08T02:43:02;99257.31;;;20.54;54.48
66857;BME280;53766;50.280;19.160;2023-09-08T02:45:30;99251.16;;;20.54;54.46
66857;BME280;53766;50.280;19.160;2023-09-08T02:48:01;99246.63;;;20.54;54.49
66857;BME280;53766;50.280;19.160;2023-09-08T02:50:28;99241.25;;;20.54;54.51
66857;BME280;53766;50.280;19.160;2023-09-08T02:52:55;99250.31;;;20.53;54.54
66857;BME280;53766;50.280;19.160;2023-09-08T02:55:22;99248.47;;;20.54;54.62
66857;BME280;53766;50.280;19.160;2023-09-08T02:57:50;99244.13;;;20.53;54.42
66857;BME280;53766;50.280;19.160;2023-09-08T03:00:17;99237.94;;;20.52;54.57
66857;BME280;53766;50.280;19.160;2023-09-08T03:02:45;99237.13;;;20.52;54.50
66857;BME280;53766;50.280;19.160;2023-09-08T03:05:13;99237.94;;;20.52;54.45
66857;BME280;53766;50.280;19.160;2023-09-08T03:07:40;99230.97;;;20.51;54.47
66857;BME280;53766;50.280;19.160;2023-09-08T03:10:07;99242.50;;;20.52;54.35
66857;BME280;53766;50.280;19.160;2023-09-08T03:12:36;99236.31;;;20.51;54.43
66857;BME280;53766;50.280;19.160;2023-09-08T03:15:04;99234.66;;;20.50;54.50
66857;BME280;53766;50.280;19.160;2023-09-08T03:17:32;99230.97;;;20.51;54.52
66857;BME280;53766;50.280;19.160;2023-09-08T03:19:59;99223.94;;;20.50;54.48
66857;BME280;53766;50.280;19.160;2023-09-08T03:22:27;99221.28;;;20.50;54.45
66857;BME280;53766;50.280;19.160;2023-09-08T03:24:54;99211.59;;;20.49;54.55
66857;BME280;53766;50.280;19.160;2023-09-08T03:27:21;99220.63;;;20.48;54.56
66857;BME280;53766;50.280;19.160;2023-09-08T03:29:48;99221.47;;;20.49;54.51
66857;BME280;53766;50.280;19.160;2023-09-08T03:32:16;99209.13;;;20.48;54.52
66857;BME280;53766;50.280;19.160;2023-09-08T03:34:43;99215.28;;;20.48;54.55
66857;BME280;53766;50.280;19.160;2023-09-08T03:37:10;99207.44;;;20.47;54.47
66857;BME280;53766;50.280;19.160;2023-09-08T03:39:37;99205.63;;;20.47;54.56
66857;BME280;53766;50.280;19.160;2023-09-08T03:42:05;99211.97;;;20.46;54.48
66857;BME280;53766;50.280;19.160;2023-09-08T03:44:32;99211.97;;;20.46;54.51
66857;BME280;53766;50.280;19.160;2023-09-08T03:46:59;99205.81;;;20.46;54.50
66857;BME280;53766;50.280;19.160;2023-09-08T03:49:30;99212.19;;;20.45;54.48
66857;BME280;53766;50.280;19.160;2023-09-08T03:51:57;99206.00;;;20.44;54.54
66857;BME280;53766;50.280;19.160;2023-09-08T03:54:25;99210.34;;;20.45;54.58
66857;BME280;53766;50.280;19.160;2023-09-08T03:56:52;99210.53;;;20.44;54.46
66857;BME280;53766;50.280;19.160;2023-09-08T03:59:19;99206.00;;;20.44;54.53
66857;BME280;53766;50.280;19.160;2023-09-08T04:01:47;99206.00;;;20.44;54.39
66857;BME280;53766;50.280;19.160;2023-09-08T04:04:14;99212.41;;;20.43;54.47
66857;BME280;53766;50.280;19.160;2023-09-08T04:06:42;99207.03;;;20.43;54.46
66857;BME280;53766;50.280;19.160;2023-09-08T04:09:09;99212.41;;;20.43;54.54
66857;BME280;53766;50.280;19.160;2023-09-08T04:11:36;99216.06;;;20.42;54.40
66857;BME280;53766;50.280;19.160;2023-09-08T04:14:04;99215.06;;;20.43;54.42
66857;BME280;53766;50.280;19.160;2023-09-08T04:16:31;99211.56;;;20.43;54.44
66857;BME280;53766;50.280;19.160;2023-09-08T04:18:58;99209.91;;;20.42;54.39
66857;BME280;53766;50.280;19.160;2023-09-08T04:21:25;99203.75;;;20.41;54.52
66857;BME280;53766;50.280;19.160;2023-09-08T04:23:53;99214.44;;;20.41;54.42
66857;BME280;53766;50.280;19.160;2023-09-08T04:26:20;99210.94;;;20.41;54.47
66857;BME280;53766;50.280;19.160;2023-09-08T04:28:47;99210.09;;;20.40;54.56
66857;BME280;53766;50.280;19.160;2023-09-08T04:31:14;99212.78;;;20.40;54.41
66857;BME280;53766;50.280;19.160;2023-09-08T04:33:43;99221.84;;;20.39;54.36
66857;BME280;53766;50.280;19.160;2023-09-08T04:36:11;99224.31;;;20.41;54.46
66857;BME280;53766;50.280;19.160;2023-09-08T04:38:40;99223.47;;;20.40;54.51
66857;BME280;53766;50.280;19.160;2023-09-08T04:41:08;99219.97;;;20.40;54.45
66857;BME280;53766;50.280;19.160;2023-09-08T04:43:36;99221.84;;;20.39;54.48
66857;BME280;53766;50.280;19.160;2023-09-08T04:46:03;99222.66;;;20.40;54.66
66857;BME280;53766;50.280;19.160;2023-09-08T04:48:30;99221.84;;;20.39;54.50
66857;BME280;53766;50.280;19.160;2023-09-08T04:50:58;99222.84;;;20.38;54.58
66857;BME280;53766;50.280;19.160;2023-09-08T04:53:25;99224.69;;;20.38;54.47
66857;BME280;53766;50.280;19.160;2023-09-08T04:55:53;99223.88;;;20.37;54.54
66857;BME280;53766;50.280;19.160;2023-09-08T04:58:20;99224.69;;;20.38;54.56
66857;BME280;53766;50.280;19.160;2023-09-08T05:00:48;99223.88;;;20.37;54.54
66857;BME280;53766;50.280;19.160;2023-09-08T05:03:15;99221.00;;;20.39;54.48
66857;BME280;53766;50.280;19.160;2023-09-08T05:05:42;99227.19;;;20.39;54.51
66857;BME280;53766;50.280;19.160;2023-09-08T05:08:10;99222.84;;;20.38;54.60
66857;BME280;53766;50.280;19.160;2023-09-08T05:10:37;99227.19;;;20.39;54.43
66857;BME280;53766;50.280;19.160;2023-09-08T05:13:04;99226.16;;;20.40;54.41
66857;BME280;53766;50.280;19.160;2023-09-08T05:15:43;99228.44;;;20.43;54.34
66857;BME280;53766;50.280;19.160;2023-09-08T05:18:11;99232.75;;;20.44;54.35
66857;BME280;53766;50.280;19.160;2023-09-08T05:20:38;99232.56;;;20.46;54.46
66857;BME280;53766;50.280;19.160;2023-09-08T05:23:05;99233.38;;;20.46;54.41
66857;BME280;53766;50.280;19.160;2023-09-08T05:25:33;99236.06;;;20.46;54.31
66857;BME280;53766;50.280;19.160;2023-09-08T05:28:00;99243.91;;;20.48;54.32
66857;BME280;53766;50.280;19.160;2023-09-08T05:30:27;99247.41;;;20.48;54.24
66857;BME280;53766;50.280;19.160;2023-09-08T05:32:55;99241.22;;;20.48;54.37
66857;BME280;53766;50.280;19.160;2023-09-08T05:35:24;99237.50;;;20.49;54.39
66857;BME280;53766;50.280;19.160;2023-09-08T05:37:51;99241.03;;;20.49;54.36
66857;BME280;53766;50.280;19.160;2023-09-08T05:40:18;99251.75;;;20.49;54.42
66857;BME280;53766;50.280;19.160;2023-09-08T05:42:47;99251.75;;;20.49;54.35
66857;BME280;53766;50.280;19.160;2023-09-08T05:45:14;99254.41;;;20.49;54.33
66857;BME280;53766;50.280;19.160;2023-09-08T05:47:41;99247.03;;;20.51;54.40
66857;BME280;53766;50.280;19.160;2023-09-08T05:50:09;99250.50;;;20.52;54.37
66857;BME280;53766;50.280;19.160;2023-09-08T05:52:36;99247.03;;;20.51;54.45
66857;BME280;53766;50.280;19.160;2023-09-08T05:55:04;99250.50;;;20.52;54.45
66857;BME280;53766;50.280;19.160;2023-09-08T05:57:31;99248.66;;;20.52;54.46
66857;BME280;53766;50.280;19.160;2023-09-08T06:00:04;99250.31;;;20.53;54.56
66857;BME280;53766;50.280;19.160;2023-09-08T06:02:32;99253.00;;;20.53;54.46
66857;BME280;53766;50.280;19.160;2023-09-08T06:05:00;99245.78;;;20.54;54.60
66857;BME280;53766;50.280;19.160;2023-09-08T06:07:27;99252.78;;;20.55;54.59
66857;BME280;53766;50.280;19.160;2023-09-08T06:09:55;99245.41;;;20.57;54.56
66857;BME280;53766;50.280;19.160;2023-09-08T06:12:23;99243.56;;;20.58;54.49
66857;BME280;53766;50.280;19.160;2023-09-08T06:14:50;99246.22;;;20.58;54.55
66857;BME280;53766;50.280;19.160;2023-09-08T06:17:17;99240.88;;;20.58;54.58
66857;BME280;53766;50.280;19.160;2023-09-08T06:19:44;99238.84;;;20.60;54.55
66857;BME280;53766;50.280;19.160;2023-09-08T06:22:12;99243.38;;;20.59;54.57
66857;BME280;53766;50.280;19.160;2023-09-08T06:24:39;99235.16;;;20.61;54.65
66857;BME280;53766;50.280;19.160;2023-09-08T06:27:07;99236.78;;;20.62;54.72
66857;BME280;53766;50.280;19.160;2023-09-08T06:29:35;99235.78;;;20.63;54.60
66857;BME280;53766;50.280;19.160;2023-09-08T06:32:02;99235.56;;;20.64;54.56
66857;BME280;53766;50.280;19.160;2023-09-08T06:34:30;99238.03;;;20.66;54.62
66857;BME280;53766;50.280;19.160;2023-09-08T06:36:57;99239.09;;;20.65;54.67
66857;BME280;53766;50.280;19.160;2023-09-08T06:39:25;99241.75;;;20.65;54.61
66857;BME280;53766;50.280;19.160;2023-09-08T06:41:52;99246.69;;;20.68;54.85
66857;BME280;53766;50.280;19.160;2023-09-08T06:44:20;99243.00;;;20.69;54.88
66857;BME280;53766;50.280;19.160;2023-09-08T06:46:48;99237.66;;;20.69;54.79
66857;BME280;53766;50.280;19.160;2023-09-08T06:49:15;99237.66;;;20.69;54.78
66857;BME280;53766;50.280;19.160;2023-09-08T06:51:42;99244.66;;;20.70;54.80
66857;BME280;53766;50.280;19.160;2023-09-08T06:54:10;99242.59;;;20.72;54.87
66857;BME280;53766;50.280;19.160;2023-09-08T06:56:37;99244.25;;;20.73;54.86
66857;BME280;53766;50.280;19.160;2023-09-08T06:59:04;99238.88;;;20.73;54.88
66857;BME280;53766;50.280;19.160;2023-09-08T07:01:32;99245.91;;;20.74;54.78
66857;BME280;53766;50.280;19.160;2023-09-08T07:04:00;99242.41;;;20.73;54.83
66857;BME280;53766;50.280;19.160;2023-09-08T07:06:27;99247.53;;;20.75;54.85
66857;BME280;53766;50.280;19.160;2023-09-08T07:08:54;99240.38;;;20.75;54.87
66857;BME280;53766;50.280;19.160;2023-09-08T07:11:22;99251.69;;;20.78;54.81
66857;BME280;53766;50.280;19.160;2023-09-08T07:13:49;99250.84;;;20.77;54.97
66857;BME280;53766;50.280;19.160;2023-09-08T07:16:16;99256.03;;;20.79;54.92
66857;BME280;53766;50.280;19.160;2023-09-08T07:18:44;99245.13;;;20.80;54.93
66857;BME280;53766;50.280;19.160;2023-09-08T07:21:11;99245.94;;;20.81;54.93
66857;BME280;53766;50.280;19.160;2023-09-08T07:23:38;99250.47;;;20.80;54.88
66857;BME280;53766;50.280;19.160;2023-09-08T07:26:05;99248.41;;;20.82;55.06
66857;BME280;53766;50.280;19.160;2023-09-08T07:28:33;99254.59;;;20.83;54.98
66857;BME280;53766;50.280;19.160;2023-09-08T07:31:02;99250.06;;;20.83;55.00
66857;BME280;53766;50.280;19.160;2023-09-08T07:33:30;99240.16;;;20.84;55.09
66857;BME280;53766;50.280;19.160;2023-09-08T07:35:57;99248.81;;;20.86;55.04
66857;BME280;53766;50.280;19.160;2023-09-08T07:38:25;99244.31;;;20.86;55.03
66857;BME280;53766;50.280;19.160;2023-09-08T07:40:52;99247.00;;;20.86;54.99
66857;BME280;53766;50.280;19.160;2023-09-08T07:43:20;99245.97;;;20.87;55.05
66857;BME280;53766;50.280;19.160;2023-09-08T07:45:47;99249.25;;;20.89;55.06
66857;BME280;53766;50.280;19.160;2023-09-08T07:48:14;99257.09;;;20.91;55.12
66857;BME280;53766;50.280;19.160;2023-09-08T07:50:42;99245.53;;;20.90;55.20
66857;BME280;53766;50.280;19.160;2023-09-08T07:53:10;99254.19;;;20.92;55.21
66857;BME280;53766;50.280;19.160;2023-09-08T07:55:37;99241.66;;;20.93;55.26
66857;BME280;53766;50.280;19.160;2023-09-08T07:58:05;99248.28;;;20.97;55.23
66857;BME280;53766;50.280;19.160;2023-09-08T08:00:32;99246.41;;;20.98;55.41
66857;BME280;53766;50.280;19.160;2023-09-08T08:03:00;99245.59;;;20.97;55.63
66857;BME280;53766;50.280;19.160;2023-09-08T08:05:28;99238.59;;;21.03;57.12
66857;BME280;53766;50.280;19.160;2023-09-08T08:07:56;99234.47;;;21.07;57.36
66857;BME280;53766;50.280;19.160;2023-09-08T08:10:23;99230.38;;;21.11;57.96
66857;BME280;53766;50.280;19.160;2023-09-08T08:12:50;99233.25;;;21.16;58.27
66857;BME280;53766;50.280;19.160;2023-09-08T08:15:19;99229.97;;;21.21;58.34
66857;BME280;53766;50.280;19.160;2023-09-08T08:17:48;99228.34;;;21.26;58.23
66857;BME280;53766;50.280;19.160;2023-09-08T08:20:15;99237.00;;;21.28;57.79
66857;BME280;53766;50.280;19.160;2023-09-08T08:22:46;99232.28;;;21.30;57.91
66857;BME280;53766;50.280;19.160;2023-09-08T08:25:13;99236.59;;;21.31;57.99
66857;BME280;53766;50.280;19.160;2023-09-08T08:27:41;99226.31;;;21.35;58.17
66857;BME280;53766;50.280;19.160;2023-09-08T08:30:09;99228.34;;;21.33;57.88
66857;BME280;53766;50.280;19.160;2023-09-08T08:32:38;99227.16;;;21.42;57.80
66857;BME280;53766;50.280;19.160;2023-09-08T08:35:06;99228.78;;;21.36;58.34
66857;BME280;53766;50.280;19.160;2023-09-08T08:37:34;99230.06;;;21.47;57.76
66857;BME280;53766;50.280;19.160;2023-09-08T08:40:02;99228.19;;;21.41;58.01
66857;BME280;53766;50.280;19.160;2023-09-08T08:42:31;99224.47;;;21.49;57.66
66857;BME280;53766;50.280;19.160;2023-09-08T08:44:58;99221.00;;;21.55;57.01
66857;BME280;53766;50.280;19.160;2023-09-08T08:47:27;99227.38;;;21.47;57.08
66857;BME280;53766;50.280;19.160;2023-09-08T08:49:56;99226.97;;;21.50;56.91
66857;BME280;53766;50.280;19.160;2023-09-08T08:52:25;99210.28;;;21.55;56.83
66857;BME280;53766;50.280;19.160;2023-09-08T08:54:53;99212.31;;;21.60;56.55
66857;BME280;53766;50.280;19.160;2023-09-08T08:57:20;99208.63;;;21.61;56.81
66857;BME280;53766;50.280;19.160;2023-09-08T08:59:51;99209.03;;;21.64;56.23
66857;BME280;53766;50.280;19.160;2023-09-08T09:02:21;99214.38;;;21.64;56.57
66857;BME280;53766;50.280;19.160;2023-09-08T09:04:48;99204.50;;;21.58;56.73
66857;BME280;53766;50.280;19.160;2023-09-08T09:07:16;99208.63;;;21.67;55.96
66857;BME280;53766;50.280;19.160;2023-09-08T09:09:45;99210.28;;;21.62;56.61
66857;BME280;53766;50.280;19.160;2023-09-08T09:12:12;99203.47;;;21.59;56.93
66857;BME280;53766;50.280;19.160;2023-09-08T09:14:44;99205.72;;;21.62;56.52
66857;BME280;53766;50.280;19.160;2023-09-08T09:17:12;99205.31;;;21.65;55.51
66857;BME280;53766;50.280;19.160;2023-09-08T09:19:40;99201.59;;;21.66;56.29
66857;BME280;53766;50.280;19.160;2023-09-08T09:22:07;99197.28;;;21.78;54.50
66857;BME280;53766;50.280;19.160;2023-09-08T09:27:04;99196.03;;;21.88;53.87
66857;BME280;53766;50.280;19.160;2023-09-08T09:29:34;99193.56;;;21.86;53.93
66857;BME280;53766;50.280;19.160;2023-09-08T09:32:02;99189.81;;;21.94;53.18
66857;BME280;53766;50.280;19.160;2023-09-08T09:34:31;99189.22;;;21.85;53.84
66857;BME280;53766;50.280;19.160;2023-09-08T09:36:58;99192.31;;;21.89;53.46
66857;BME280;53766;50.280;19.160;2023-09-08T09:39:26;99189.81;;;21.94;53.30
66857;BME280;53766;50.280;19.160;2023-09-08T09:41:55;99197.69;;;21.89;53.68
66857;BME280;53766;50.280;19.160;2023-09-08T09:44:23;99192.50;;;21.94;52.78
66857;BME280;53766;50.280;19.160;2023-09-08T09:46:51;99192.47;;;22.07;52.24
66857;BME280;53766;50.280;19.160;2023-09-08T09:49:19;99192.47;;;22.07;51.21
66857;BME280;53766;50.280;19.160;2023-09-08T09:54:14;99193.31;;;22.01;51.63
66857;BME280;53766;50.280;19.160;2023-09-08T09:56:42;99182.38;;;22.23;50.35
66857;BME280;53766;50.280;19.160;2023-09-08T09:59:13;99191.25;;;22.03;52.04
66857;BME280;53766;50.280;19.160;2023-09-08T10:01:41;99187.94;;;22.01;52.41
66857;BME280;53766;50.280;19.160;2023-09-08T10:04:09;99183.78;;;22.18;51.30
66857;BME280;53766;50.280;19.160;2023-09-08T10:06:39;99177.19;;;22.21;50.02
66857;BME280;53766;50.280;19.160;2023-09-08T10:09:06;99170.94;;;22.47;49.22
66857;BME280;53766;50.280;19.160;2023-09-08T10:11:42;99168.91;;;22.36;49.87
66857;BME280;53766;50.280;19.160;2023-09-08T10:14:09;99168.09;;;22.29;49.80
66857;BME280;53766;50.280;19.160;2023-09-08T10:16:39;99169.34;;;22.19;50.85
66857;BME280;53766;50.280;19.160;2023-09-08T10:19:10;99169.75;;;22.23;50.69
66857;BME280;53766;50.280;19.160;2023-09-08T10:21:41;99162.47;;;22.44;49.24
66857;BME280;53766;50.280;19.160;2023-09-08T10:24:12;99161.06;;;22.41;49.40
66857;BME280;53766;50.280;19.160;2023-09-08T10:26:43;99167.25;;;22.42;50.00
66857;BME280;53766;50.280;19.160;2023-09-08T10:29:11;99167.03;;;22.43;49.30
66857;BME280;53766;50.280;19.160;2023-09-08T10:31:39;99167.88;;;22.37;50.46
66857;BME280;53766;50.280;19.160;2023-09-08T10:34:06;99163.47;;;22.49;47.24
66857;BME280;53766;50.280;19.160;2023-09-08T10:36:34;99161.84;;;22.48;48.34
66857;BME280;53766;50.280;19.160;2023-09-08T10:41:49;99155.25;;;22.44;49.70
66857;BME280;53766;50.280;19.160;2023-09-08T10:44:16;99151.94;;;22.42;50.77
66857;BME280;53766;50.280;19.160;2023-09-08T10:46:44;99157.25;;;22.55;50.43
66857;BME280;53766;50.280;19.160;2023-09-08T10:49:11;99155.66;;;22.48;50.57
66857;BME280;53766;50.280;19.160;2023-09-08T10:51:40;99159.66;;;22.70;48.60
66857;BME280;53766;50.280;19.160;2023-09-08T10:54:07;99152.69;;;22.63;49.32
66857;BME280;53766;50.280;19.160;2023-09-08T10:56:47;99154.38;;;22.57;49.53
66857;BME280;53766;50.280;19.160;2023-09-08T10:59:16;99158.09;;;22.49;50.66
66857;BME280;53766;50.280;19.160;2023-09-08T11:01:44;99155.69;;;22.41;51.56
66857;BME280;53766;50.280;19.160;2023-09-08T11:04:11;99158.09;;;22.49;49.88
66857;BME280;53766;50.280;19.160;2023-09-08T11:06:40;99154.56;;;22.55;49.60
66857;BME280;53766;50.280;19.160;2023-09-08T11:09:07;99149.47;;;22.47;50.20
66857;BME280;53766;50.280;19.160;2023-09-08T11:11:35;99143.66;;;22.50;50.11
66857;BME280;53766;50.280;19.160;2023-09-08T11:14:03;99148.28;;;22.75;48.49
66857;BME280;53766;50.280;19.160;2023-09-08T11:16:31;99141.44;;;22.79;48.14
66857;BME280;53766;50.280;19.160;2023-09-08T11:19:00;99140.41;;;22.80;47.64
66857;BME280;53766;50.280;19.160;2023-09-08T11:21:31;99138.50;;;22.87;46.52
66857;BME280;53766;50.280;19.160;2023-09-08T11:24:02;99136.44;;;22.89;45.91
66857;BME280;53766;50.280;19.160;2023-09-08T11:26:34;99138.16;;;22.77;46.99
66857;BME280;53766;50.280;19.160;2023-09-08T11:29:02;99134.41;;;22.85;47.02
66857;BME280;53766;50.280;19.160;2023-09-08T11:31:29;99130.69;;;22.79;47.20
66857;BME280;53766;50.280;19.160;2023-09-08T11:33:57;99134.97;;;22.93;46.08
66857;BME280;53766;50.280;19.160;2023-09-08T11:36:26;99135.00;;;22.87;47.50
66857;BME280;53766;50.280;19.160;2023-09-08T11:38:55;99128.19;;;22.84;46.99
66857;BME280;53766;50.280;19.160;2023-09-08T11:41:23;99130.19;;;22.95;46.65
66857;BME280;53766;50.280;19.160;2023-09-08T11:43:51;99123.88;;;22.83;48.10
66857;BME280;53766;50.280;19.160;2023-09-08T11:46:19;99123.41;;;22.86;47.98
66857;BME280;53766;50.280;19.160;2023-09-08T11:48:47;99124.47;;;22.85;47.35
66857;BME280;53766;50.280;19.160;2023-09-08T11:51:14;99127.50;;;22.95;45.39
66857;BME280;53766;50.280;19.160;2023-09-08T11:53:41;99119.81;;;23.06;44.42
66857;BME280;53766;50.280;19.160;2023-09-08T11:56:09;99122.50;;;23.06;45.93
66857;BME280;53766;50.280;19.160;2023-09-08T11:58:36;99123.75;;;23.03;46.44
66857;BME280;53766;50.280;19.160;2023-09-08T12:01:05;99117.97;;;22.99;46.33
66857;BME280;53766;50.280;19.160;2023-09-08T12:03:32;99113.22;;;23.02;45.48
66857;BME280;53766;50.280;19.160;2023-09-08T12:06:00;99109.91;;;22.99;46.03
66857;BME280;53766;50.280;19.160;2023-09-08T12:08:29;99107.88;;;22.95;46.29
66857;BME280;53766;50.280;19.160;2023-09-08T12:10:56;99112.53;;;23.13;45.55
66857;BME280;53766;50.280;19.160;2023-09-08T12:13:24;99101.25;;;22.97;47.17
66857;BME280;53766;50.280;19.160;2023-09-08T12:15:51;99103.75;;;22.92;46.68
66857;BME280;53766;50.280;19.160;2023-09-08T12:18:18;99096.31;;;22.94;46.32
66857;BME280;53766;50.280;19.160;2023-09-08T12:20:46;99093.88;;;22.86;47.40
66857;BME280;53766;50.280;19.160;2023-09-08T12:25:46;99092.66;;;22.89;47.26
66857;BME280;53766;50.280;19.160;2023-09-08T12:28:15;99091.78;;;22.88;48.86
66857;BME280;53766;50.280;19.160;2023-09-08T12:30:42;99091.72;;;23.02;46.68
66857;BME280;53766;50.280;19.160;2023-09-08T12:33:10;99084.34;;;22.90;47.97
66857;BME280;53766;50.280;19.160;2023-09-08T12:35:38;99078.81;;;22.85;47.38
66857;BME280;53766;50.280;19.160;2023-09-08T12:38:05;99082.25;;;22.92;47.05
66857;BME280;53766;50.280;19.160;2023-09-08T12:40:37;99085.56;;;22.94;46.85
66857;BME280;53766;50.280;19.160;2023-09-08T12:43:04;99081.59;;;22.97;46.25
66857;BME280;53766;50.280;19.160;2023-09-08T12:45:43;99077.34;;;22.89;47.16
66857;BME280;53766;50.280;19.160;2023-09-08T12:48:10;99080.59;;;22.98;47.52
66857;BME280;53766;50.280;19.160;2023-09-08T12:50:38;99078.09;;;22.96;47.73
66857;BME280;53766;50.280;19.160;2023-09-08T12:53:05;99080.19;;;22.94;47.89
66857;BME280;53766;50.280;19.160;2023-09-08T12:55:32;99083.06;;;22.99;48.06
66857;BME280;53766;50.280;19.160;2023-09-08T12:57:59;99073.09;;;23.07;47.64
66857;BME280;53766;50.280;19.160;2023-09-08T13:00:27;99077.88;;;23.05;47.41
66857;BME280;53766;50.280;19.160;2023-09-08T13:02:55;99078.41;;;23.13;46.51
66857;BME280;53766;50.280;19.160;2023-09-08T13:05:22;99067.63;;;23.20;48.33
66857;BME280;53766;50.280;19.160;2023-09-08T13:07:49;99069.38;;;23.08;49.33
66857;BME280;53766;50.280;19.160;2023-09-08T13:10:17;99076.41;;;23.09;47.28